sensor_id;sensor_type;location;lat;lon;timestamp;P1;durP1;ratioP1;P2;durP2;ratioP2
7647;SDS011;3866;48.020;11.720;2023-02-07T00:00:48;26.87;;;19.43;;
7647;SDS011;3866;48.020;11.720;2023-02-07T00:03:15;27.23;;;18.17;;
7647;SDS011;3866;48.020;11.720;2023-02-07T00:05:42;25.83;;;18.13;;
7647;SDS011;3866;48.020;11.720;2023-02-07T00:08:09;24.13;;;17.33;;
7647;SDS011;3866;48.020;11.720;2023-02-07T00:10:36;22.27;;;16.13;;
7647;SDS011;3866;48.020;11.720;2023-02-07T00:13:03;22.57;;;15.70;;
7647;SDS011;3866;48.020;11.720;2023-02-07T00:15:30;19.87;;;16.40;;
7647;SDS011;3866;48.020;11.720;2023-02-07T00:17:58;24.03;;;17.50;;
7647;SDS011;3866;48.020;11.720;2023-02-07T00:20:25;20.87;;;16.87;;
7647;SDS011;3866;48.020;11.720;2023-02-07T00:22:52;24.37;;;17.17;;
7647;SDS011;3866;48.020;11.720;2023-02-07T00:25:19;24.03;;;17.67;;
7647;SDS011;3866;48.020;11.720;2023-02-07T00:27:47;22.47;;;17.40;;
7647;SDS011;3866;48.020;11.720;2023-02-07T00:30:14;22.03;;;17.67;;
7647;SDS011;3866;48.020;11.720;2023-02-07T00:32:41;24.10;;;17.60;;
7647;SDS011;3866;48.020;11.720;2023-02-07T00:35:09;24.40;;;17.93;;
7647;SDS011;3866;48.020;11.720;2023-02-07T00:37:36;24.40;;;17.43;;
7647;SDS011;3866;48.020;11.720;2023-02-07T00:40:03;27.10;;;18.53;;
7647;SDS011;3866;48.020;11.720;2023-02-07T00:42:31;25.97;;;18.83;;
7647;SDS011;3866;48.020;11.720;2023-02-07T00:44:58;30.73;;;19.37;;
7647;SDS011;3866;48.020;11.720;2023-02-07T00:47:25;25.50;;;18.13;;
7647;SDS011;3866;48.020;11.720;2023-02-07T00:49:52;21.97;;;17.10;;
7647;SDS011;3866;48.020;11.720;2023-02-07T00:52:20;21.87;;;16.37;;
7647;SDS011;3866;48.020;11.720;2023-02-07T00:54:47;20.37;;;15.63;;
7647;SDS011;3866;48.020;11.720;2023-02-07T00:57:14;25.93;;;17.67;;
7647;SDS011;3866;48.020;11.720;2023-02-07T00:59:41;20.83;;;16.60;;
7647;SDS011;3866;48.020;11.720;2023-02-07T01:02:08;21.77;;;16.30;;
7647;SDS011;3866;48.020;11.720;2023-02-07T01:04:35;20.40;;;16.30;;
7647;SDS011;3866;48.020;11.720;2023-02-07T01:07:02;23.20;;;17.30;;
7647;SDS011;3866;48.020;11.720;2023-02-07T01:09:30;22.43;;;17.40;;
7647;SDS011;3866;48.020;11.720;2023-02-07T01:11:57;25.23;;;17.03;;
7647;SDS011;3866;48.020;11.720;2023-02-07T01:14:24;22.57;;;16.27;;
7647;SDS011;3866;48.020;11.720;2023-02-07T01:16:51;23.00;;;17.10;;
7647;SDS011;3866;48.020;11.720;2023-02-07T01:19:18;21.93;;;16.23;;
7647;SDS011;3866;48.020;11.720;2023-02-07T01:21:45;22.80;;;16.33;;
7647;SDS011;3866;48.020;11.720;2023-02-07T01:24:12;25.13;;;17.20;;
7647;SDS011;3866;48.020;11.720;2023-02-07T01:26:40;23.90;;;16.73;;
7647;SDS011;3866;48.020;11.720;2023-02-07T01:29:08;21.87;;;15.93;;
7647;SDS011;3866;48.020;11.720;2023-02-07T01:31:39;22.93;;;17.03;;
7647;SDS011;3866;48.020;11.720;2023-02-07T01:34:06;22.93;;;17.03;;
7647;SDS011;3866;48.020;11.720;2023-02-07T01:36:36;20.80;;;15.80;;
7647;SDS011;3866;48.020;11.720;2023-02-07T01:39:03;21.13;;;16.07;;
7647;SDS011;3866;48.020;11.720;2023-02-07T01:41:30;20.93;;;16.43;;
7647;SDS011;3866;48.020;11.720;2023-02-07T01:44:00;20.30;;;15.77;;
7647;SDS011;3866;48.020;11.720;2023-02-07T01:46:30;22.40;;;15.80;;
7647;SDS011;3866;48.020;11.720;2023-02-07T01:48:59;21.00;;;16.30;;
7647;SDS011;3866;48.020;11.720;2023-02-07T01:51:29;20.70;;;16.23;;
7647;SDS011;3866;48.020;11.720;2023-02-07T01:53:58;20.80;;;14.63;;
7647;SDS011;3866;48.020;11.720;2023-02-07T01:56:28;20.90;;;15.87;;
7647;SDS011;3866;48.020;11.720;2023-02-07T01:58:56;18.70;;;13.70;;
7647;SDS011;3866;48.020;11.720;2023-02-07T02:01:25;21.33;;;15.87;;
7647;SDS011;3866;48.020;11.720;2023-02-07T02:03:52;19.33;;;14.80;;
7647;SDS011;3866;48.020;11.720;2023-02-07T02:06:20;20.67;;;15.13;;
7647;SDS011;3866;48.020;11.720;2023-02-07T02:08:51;20.40;;;14.83;;
7647;SDS011;3866;48.020;11.720;2023-02-07T02:11:30;21.00;;;15.43;;
7647;SDS011;3866;48.020;11.720;2023-02-07T02:14:23;21.17;;;15.03;;
7647;SDS011;3866;48.020;11.720;2023-02-07T02:17:09;20.93;;;14.40;;
7647;SDS011;3866;48.020;11.720;2023-02-07T02:19:53;20.93;;;15.07;;
7647;SDS011;3866;48.020;11.720;2023-02-07T02:22:54;19.47;;;14.30;;
7647;SDS011;3866;48.020;11.720;2023-02-07T02:25:42;16.83;;;14.27;;
7647;SDS011;3866;48.020;11.720;2023-02-07T02:28:35;20.77;;;15.17;;
7647;SDS011;3866;48.020;11.720;2023-02-07T02:31:44;20.67;;;14.83;;
7647;SDS011;3866;48.020;11.720;2023-02-07T02:34:32;19.00;;;14.30;;
7647;SDS011;3866;48.020;11.720;2023-02-07T02:37:05;23.53;;;15.60;;
7647;SDS011;3866;48.020;11.720;2023-02-07T02:39:39;20.77;;;14.97;;
7647;SDS011;3866;48.020;11.720;2023-02-07T02:42:10;19.20;;;14.40;;
7647;SDS011;3866;48.020;11.720;2023-02-07T02:44:44;22.57;;;15.00;;
7647;SDS011;3866;48.020;11.720;2023-02-07T02:47:16;21.27;;;15.67;;
7647;SDS011;3866;48.020;11.720;2023-02-07T02:49:46;20.40;;;14.80;;
7647;SDS011;3866;48.020;11.720;2023-02-07T02:52:14;24.20;;;15.60;;
7647;SDS011;3866;48.020;11.720;2023-02-07T02:54:41;22.30;;;15.30;;
7647;SDS011;3866;48.020;11.720;2023-02-07T02:57:13;21.27;;;14.83;;
7647;SDS011;3866;48.020;11.720;2023-02-07T03:02:50;21.53;;;14.83;;
7647;SDS011;3866;48.020;11.720;2023-02-07T03:05:35;23.27;;;14.77;;
7647;SDS011;3866;48.020;11.720;2023-02-07T03:08:11;20.40;;;15.30;;
7647;SDS011;3866;48.020;11.720;2023-02-07T03:10:50;22.47;;;15.90;;
7647;SDS011;3866;48.020;11.720;2023-02-07T03:13:24;22.00;;;15.33;;
7647;SDS011;3866;48.020;11.720;2023-02-07T03:15:59;20.53;;;15.23;;
7647;SDS011;3866;48.020;11.720;2023-02-07T03:18:33;21.63;;;15.43;;
7647;SDS011;3866;48.020;11.720;2023-02-07T03:21:11;23.23;;;15.67;;
7647;SDS011;3866;48.020;11.720;2023-02-07T03:23:43;22.13;;;15.70;;
7647;SDS011;3866;48.020;11.720;2023-02-07T03:26:12;21.90;;;15.17;;
7647;SDS011;3866;48.020;11.720;2023-02-07T03:28:40;24.80;;;16.33;;
7647;SDS011;3866;48.020;11.720;2023-02-07T03:31:07;21.87;;;16.20;;
7647;SDS011;3866;48.020;11.720;2023-02-07T03:33:38;25.33;;;16.93;;
7647;SDS011;3866;48.020;11.720;2023-02-07T03:36:07;22.20;;;17.23;;
7647;SDS011;3866;48.020;11.720;2023-02-07T03:38:42;23.73;;;17.77;;
7647;SDS011;3866;48.020;11.720;2023-02-07T03:41:10;24.30;;;16.87;;
7647;SDS011;3866;48.020;11.720;2023-02-07T03:43:41;23.90;;;16.33;;
7647;SDS011;3866;48.020;11.720;2023-02-07T03:46:09;20.50;;;15.33;;
7647;SDS011;3866;48.020;11.720;2023-02-07T03:48:37;21.53;;;16.13;;
7647;SDS011;3866;48.020;11.720;2023-02-07T03:51:04;22.07;;;15.60;;
7647;SDS011;3866;48.020;11.720;2023-02-07T03:53:32;22.43;;;15.40;;
7647;SDS011;3866;48.020;11.720;2023-02-07T03:55:59;21.43;;;15.53;;
7647;SDS011;3866;48.020;11.720;2023-02-07T03:58:26;23.40;;;16.30;;
7647;SDS011;3866;48.020;11.720;2023-02-07T04:00:53;20.97;;;15.17;;
7647;SDS011;3866;48.020;11.720;2023-02-07T04:03:20;24.43;;;16.17;;
7647;SDS011;3866;48.020;11.720;2023-02-07T04:05:47;21.37;;;15.60;;
7647;SDS011;3866;48.020;11.720;2023-02-07T04:08:14;25.43;;;16.17;;
7647;SDS011;3866;48.020;11.720;2023-02-07T04:10:42;23.07;;;16.23;;
7647;SDS011;3866;48.020;11.720;2023-02-07T04:13:09;22.20;;;16.23;;
7647;SDS011;3866;48.020;11.720;2023-02-07T04:15:36;20.97;;;16.10;;
7647;SDS011;3866;48.020;11.720;2023-02-07T04:18:03;24.17;;;16.50;;
7647;SDS011;3866;48.020;11.720;2023-02-07T04:20:30;22.57;;;16.10;;
7647;SDS011;3866;48.020;11.720;2023-02-07T04:22:57;24.03;;;17.07;;
7647;SDS011;3866;48.020;11.720;2023-02-07T04:25:24;28.10;;;18.53;;
7647;SDS011;3866;48.020;11.720;2023-02-07T04:27:52;23.97;;;17.73;;
7647;SDS011;3866;48.020;11.720;2023-02-07T04:30:19;23.80;;;16.57;;
7647;SDS011;3866;48.020;11.720;2023-02-07T04:32:46;29.00;;;19.47;;
7647;SDS011;3866;48.020;11.720;2023-02-07T04:35:13;25.57;;;18.33;;
7647;SDS011;3866;48.020;11.720;2023-02-07T04:37:40;21.53;;;16.53;;
7647;SDS011;3866;48.020;11.720;2023-02-07T04:40:07;22.80;;;16.90;;
7647;SDS011;3866;48.020;11.720;2023-02-07T04:42:35;21.53;;;15.43;;
7647;SDS011;3866;48.020;11.720;2023-02-07T04:45:04;21.07;;;15.77;;
7647;SDS011;3866;48.020;11.720;2023-02-07T04:47:31;21.10;;;15.40;;
7647;SDS011;3866;48.020;11.720;2023-02-07T04:49:58;23.87;;;16.77;;
7647;SDS011;3866;48.020;11.720;2023-02-07T04:52:25;24.60;;;16.83;;
7647;SDS011;3866;48.020;11.720;2023-02-07T04:54:52;22.70;;;16.97;;
7647;SDS011;3866;48.020;11.720;2023-02-07T04:57:19;20.93;;;14.73;;
7647;SDS011;3866;48.020;11.720;2023-02-07T04:59:46;22.00;;;15.80;;
7647;SDS011;3866;48.020;11.720;2023-02-07T05:02:14;21.60;;;15.60;;
7647;SDS011;3866;48.020;11.720;2023-02-07T05:04:41;21.13;;;16.23;;
7647;SDS011;3866;48.020;11.720;2023-02-07T05:07:08;20.60;;;16.43;;
7647;SDS011;3866;48.020;11.720;2023-02-07T05:09:35;20.37;;;15.93;;
7647;SDS011;3866;48.020;11.720;2023-02-07T05:12:02;23.87;;;16.20;;
7647;SDS011;3866;48.020;11.720;2023-02-07T05:14:29;44.00;;;29.23;;
7647;SDS011;3866;48.020;11.720;2023-02-07T05:16:56;21.50;;;16.50;;
7647;SDS011;3866;48.020;11.720;2023-02-07T05:19:24;21.67;;;16.77;;
7647;SDS011;3866;48.020;11.720;2023-02-07T05:21:52;22.90;;;15.97;;
7647;SDS011;3866;48.020;11.720;2023-02-07T05:24:19;23.10;;;16.30;;
7647;SDS011;3866;48.020;11.720;2023-02-07T05:26:46;22.83;;;16.33;;
7647;SDS011;3866;48.020;11.720;2023-02-07T05:29:13;21.40;;;16.23;;
7647;SDS011;3866;48.020;11.720;2023-02-07T05:31:40;22.13;;;16.27;;
7647;SDS011;3866;48.020;11.720;2023-02-07T05:34:25;22.97;;;16.80;;
7647;SDS011;3866;48.020;11.720;2023-02-07T05:36:54;23.07;;;17.10;;
7647;SDS011;3866;48.020;11.720;2023-02-07T05:39:21;21.63;;;15.77;;
7647;SDS011;3866;48.020;11.720;2023-02-07T05:41:48;22.30;;;16.83;;
7647;SDS011;3866;48.020;11.720;2023-02-07T05:44:15;24.27;;;17.63;;
7647;SDS011;3866;48.020;11.720;2023-02-07T05:46:42;25.13;;;18.40;;
7647;SDS011;3866;48.020;11.720;2023-02-07T05:49:09;29.17;;;19.60;;
7647;SDS011;3866;48.020;11.720;2023-02-07T05:51:37;30.37;;;21.00;;
7647;SDS011;3866;48.020;11.720;2023-02-07T05:54:04;25.87;;;18.57;;
7647;SDS011;3866;48.020;11.720;2023-02-07T05:56:31;26.60;;;18.57;;
7647;SDS011;3866;48.020;11.720;2023-02-07T05:58:58;24.53;;;18.07;;
7647;SDS011;3866;48.020;11.720;2023-02-07T06:01:25;25.73;;;18.63;;
7647;SDS011;3866;48.020;11.720;2023-02-07T06:03:52;26.03;;;17.73;;
7647;SDS011;3866;48.020;11.720;2023-02-07T06:06:19;23.90;;;17.73;;
7647;SDS011;3866;48.020;11.720;2023-02-07T06:08:47;22.87;;;16.17;;
7647;SDS011;3866;48.020;11.720;2023-02-07T06:11:14;24.43;;;17.67;;
7647;SDS011;3866;48.020;11.720;2023-02-07T06:13:41;23.37;;;17.37;;
7647;SDS011;3866;48.020;11.720;2023-02-07T06:16:08;22.10;;;16.43;;
7647;SDS011;3866;48.020;11.720;2023-02-07T06:18:34;21.57;;;16.20;;
7647;SDS011;3866;48.020;11.720;2023-02-07T06:21:01;24.13;;;16.70;;
7647;SDS011;3866;48.020;11.720;2023-02-07T06:23:29;25.87;;;17.00;;
7647;SDS011;3866;48.020;11.720;2023-02-07T06:25:57;22.63;;;15.97;;
7647;SDS011;3866;48.020;11.720;2023-02-07T06:28:24;20.70;;;16.37;;
7647;SDS011;3866;48.020;11.720;2023-02-07T06:30:51;22.63;;;16.80;;
7647;SDS011;3866;48.020;11.720;2023-02-07T06:33:18;23.93;;;16.53;;
7647;SDS011;3866;48.020;11.720;2023-02-07T06:35:45;23.20;;;16.70;;
7647;SDS011;3866;48.020;11.720;2023-02-07T06:38:12;24.20;;;17.00;;
7647;SDS011;3866;48.020;11.720;2023-02-07T06:40:39;23.73;;;17.70;;
7647;SDS011;3866;48.020;11.720;2023-02-07T06:43:08;24.10;;;15.93;;
7647;SDS011;3866;48.020;11.720;2023-02-07T06:45:36;32.57;;;17.17;;
7647;SDS011;3866;48.020;11.720;2023-02-07T06:48:03;28.67;;;17.37;;
7647;SDS011;3866;48.020;11.720;2023-02-07T06:50:31;30.33;;;17.53;;
7647;SDS011;3866;48.020;11.720;2023-02-07T06:52:58;22.17;;;16.30;;
7647;SDS011;3866;48.020;11.720;2023-02-07T06:55:26;27.43;;;16.53;;
7647;SDS011;3866;48.020;11.720;2023-02-07T06:57:53;22.77;;;15.80;;
7647;SDS011;3866;48.020;11.720;2023-02-07T07:00:22;20.57;;;15.47;;
7647;SDS011;3866;48.020;11.720;2023-02-07T07:02:50;22.03;;;14.70;;
7647;SDS011;3866;48.020;11.720;2023-02-07T07:05:17;22.47;;;15.50;;
7647;SDS011;3866;48.020;11.720;2023-02-07T07:07:44;20.60;;;14.67;;
7647;SDS011;3866;48.020;11.720;2023-02-07T07:10:11;18.37;;;14.13;;
7647;SDS011;3866;48.020;11.720;2023-02-07T07:12:39;20.33;;;14.20;;
7647;SDS011;3866;48.020;11.720;2023-02-07T07:15:06;18.80;;;14.57;;
7647;SDS011;3866;48.020;11.720;2023-02-07T07:17:35;20.70;;;14.37;;
7647;SDS011;3866;48.020;11.720;2023-02-07T07:20:02;19.93;;;14.17;;
7647;SDS011;3866;48.020;11.720;2023-02-07T07:22:29;17.00;;;12.80;;
7647;SDS011;3866;48.020;11.720;2023-02-07T07:24:56;18.80;;;14.23;;
7647;SDS011;3866;48.020;11.720;2023-02-07T07:27:23;15.23;;;12.43;;
7647;SDS011;3866;48.020;11.720;2023-02-07T07:29:50;17.80;;;12.37;;
7647;SDS011;3866;48.020;11.720;2023-02-07T07:32:16;16.43;;;13.20;;
7647;SDS011;3866;48.020;11.720;2023-02-07T07:34:45;22.77;;;14.17;;
7647;SDS011;3866;48.020;11.720;2023-02-07T07:37:14;20.87;;;13.17;;
7647;SDS011;3866;48.020;11.720;2023-02-07T07:39:41;17.07;;;12.70;;
7647;SDS011;3866;48.020;11.720;2023-02-07T07:42:09;19.97;;;13.13;;
7647;SDS011;3866;48.020;11.720;2023-02-07T07:44:36;18.10;;;12.40;;
7647;SDS011;3866;48.020;11.720;2023-02-07T07:47:03;15.97;;;12.07;;
7647;SDS011;3866;48.020;11.720;2023-02-07T07:49:29;17.47;;;12.47;;
7647;SDS011;3866;48.020;11.720;2023-02-07T07:51:58;14.83;;;10.70;;
7647;SDS011;3866;48.020;11.720;2023-02-07T07:54:25;15.67;;;11.50;;
7647;SDS011;3866;48.020;11.720;2023-02-07T07:56:52;14.60;;;10.67;;
7647;SDS011;3866;48.020;11.720;2023-02-07T07:59:19;13.03;;;11.13;;
7647;SDS011;3866;48.020;11.720;2023-02-07T08:01:46;16.27;;;11.70;;
7647;SDS011;3866;48.020;11.720;2023-02-07T08:04:13;13.63;;;9.93;;
7647;SDS011;3866;48.020;11.720;2023-02-07T08:06:40;13.00;;;9.80;;
7647;SDS011;3866;48.020;11.720;2023-02-07T08:09:08;15.20;;;10.60;;
7647;SDS011;3866;48.020;11.720;2023-02-07T08:11:35;13.00;;;10.20;;
7647;SDS011;3866;48.020;11.720;2023-02-07T08:14:02;14.53;;;10.43;;
7647;SDS011;3866;48.020;11.720;2023-02-07T08:16:29;13.03;;;10.80;;
7647;SDS011;3866;48.020;11.720;2023-02-07T08:18:56;14.50;;;10.77;;
7647;SDS011;3866;48.020;11.720;2023-02-07T08:21:23;13.97;;;10.07;;
7647;SDS011;3866;48.020;11.720;2023-02-07T08:23:51;12.37;;;9.97;;
7647;SDS011;3866;48.020;11.720;2023-02-07T08:26:19;14.70;;;10.63;;
7647;SDS011;3866;48.020;11.720;2023-02-07T08:28:46;13.00;;;9.97;;
7647;SDS011;3866;48.020;11.720;2023-02-07T08:31:16;14.37;;;10.50;;
7647;SDS011;3866;48.020;11.720;2023-02-07T08:33:44;13.03;;;10.70;;
7647;SDS011;3866;48.020;11.720;2023-02-07T08:36:11;16.47;;;10.10;;
7647;SDS011;3866;48.020;11.720;2023-02-07T08:38:38;12.93;;;10.60;;
7647;SDS011;3866;48.020;11.720;2023-02-07T08:41:04;16.77;;;10.27;;
7647;SDS011;3866;48.020;11.720;2023-02-07T08:43:33;14.87;;;10.80;;
7647;SDS011;3866;48.020;11.720;2023-02-07T08:46:00;12.97;;;11.00;;
7647;SDS011;3866;48.020;11.720;2023-02-07T08:48:27;13.37;;;10.83;;
7647;SDS011;3866;48.020;11.720;2023-02-07T08:50:54;15.77;;;11.47;;
7647;SDS011;3866;48.020;11.720;2023-02-07T08:53:21;15.10;;;10.13;;
7647;SDS011;3866;48.020;11.720;2023-02-07T08:55:48;13.53;;;10.13;;
7647;SDS011;3866;48.020;11.720;2023-02-07T08:58:16;14.47;;;11.30;;
7647;SDS011;3866;48.020;11.720;2023-02-07T09:00:44;13.77;;;10.87;;
7647;SDS011;3866;48.020;11.720;2023-02-07T09:03:11;12.53;;;10.43;;
7647;SDS011;3866;48.020;11.720;2023-02-07T09:05:39;14.13;;;10.40;;
7647;SDS011;3866;48.020;11.720;2023-02-07T09:08:06;13.10;;;10.27;;
7647;SDS011;3866;48.020;11.720;2023-02-07T09:10:33;12.27;;;10.67;;
7647;SDS011;3866;48.020;11.720;2023-02-07T09:13:00;13.67;;;10.73;;
7647;SDS011;3866;48.020;11.720;2023-02-07T09:15:27;14.70;;;11.90;;
7647;SDS011;3866;48.020;11.720;2023-02-07T09:17:55;16.63;;;10.20;;
7647;SDS011;3866;48.020;11.720;2023-02-07T09:20:22;12.17;;;10.70;;
7647;SDS011;3866;48.020;11.720;2023-02-07T09:22:49;12.70;;;10.50;;
7647;SDS011;3866;48.020;11.720;2023-02-07T09:25:36;12.93;;;9.77;;
7647;SDS011;3866;48.020;11.720;2023-02-07T09:28:03;16.50;;;11.93;;
7647;SDS011;3866;48.020;11.720;2023-02-07T09:30:30;14.70;;;11.33;;
7647;SDS011;3866;48.020;11.720;2023-02-07T09:32:58;14.47;;;11.47;;
7647;SDS011;3866;48.020;11.720;2023-02-07T09:35:26;14.17;;;10.60;;
7647;SDS011;3866;48.020;11.720;2023-02-07T09:37:53;12.27;;;10.70;;
7647;SDS011;3866;48.020;11.720;2023-02-07T09:40:24;15.37;;;11.60;;
7647;SDS011;3866;48.020;11.720;2023-02-07T09:42:54;14.30;;;11.53;;
7647;SDS011;3866;48.020;11.720;2023-02-07T09:45:24;16.27;;;12.37;;
7647;SDS011;3866;48.020;11.720;2023-02-07T09:47:57;17.63;;;13.27;;
7647;SDS011;3866;48.020;11.720;2023-02-07T09:50:29;17.13;;;12.40;;
7647;SDS011;3866;48.020;11.720;2023-02-07T09:53:02;16.47;;;12.53;;
7647;SDS011;3866;48.020;11.720;2023-02-07T09:55:36;15.60;;;12.33;;
7647;SDS011;3866;48.020;11.720;2023-02-07T09:58:11;16.43;;;12.30;;
7647;SDS011;3866;48.020;11.720;2023-02-07T10:00:40;15.27;;;12.37;;
7647;SDS011;3866;48.020;11.720;2023-02-07T10:03:12;17.17;;;12.10;;
7647;SDS011;3866;48.020;11.720;2023-02-07T10:05:44;15.37;;;12.83;;
7647;SDS011;3866;48.020;11.720;2023-02-07T10:08:17;15.83;;;12.37;;
7647;SDS011;3866;48.020;11.720;2023-02-07T10:10:45;16.43;;;12.90;;
7647;SDS011;3866;48.020;11.720;2023-02-07T10:13:20;15.93;;;11.97;;
7647;SDS011;3866;48.020;11.720;2023-02-07T10:16:06;19.17;;;12.60;;
7647;SDS011;3866;48.020;11.720;2023-02-07T10:18:45;15.67;;;11.20;;
7647;SDS011;3866;48.020;11.720;2023-02-07T10:21:18;16.43;;;11.87;;
7647;SDS011;3866;48.020;11.720;2023-02-07T10:23:58;13.87;;;11.33;;
7647;SDS011;3866;48.020;11.720;2023-02-07T10:26:51;16.33;;;11.20;;
7647;SDS011;3866;48.020;11.720;2023-02-07T10:32:11;22.27;;;12.00;;
7647;SDS011;3866;48.020;11.720;2023-02-07T10:34:43;19.70;;;11.10;;
7647;SDS011;3866;48.020;11.720;2023-02-07T10:37:14;18.00;;;11.87;;
7647;SDS011;3866;48.020;11.720;2023-02-07T10:39:45;14.60;;;11.33;;
7647;SDS011;3866;48.020;11.720;2023-02-07T10:42:18;16.07;;;11.17;;
7647;SDS011;3866;48.020;11.720;2023-02-07T10:44:45;12.83;;;10.13;;
7647;SDS011;3866;48.020;11.720;2023-02-07T10:47:13;16.47;;;11.53;;
7647;SDS011;3866;48.020;11.720;2023-02-07T10:49:43;12.97;;;10.30;;
7647;SDS011;3866;48.020;11.720;2023-02-07T10:52:17;14.87;;;11.07;;
7647;SDS011;3866;48.020;11.720;2023-02-07T10:54:52;15.47;;;10.70;;
7647;SDS011;3866;48.020;11.720;2023-02-07T10:57:20;12.67;;;10.27;;
7647;SDS011;3866;48.020;11.720;2023-02-07T10:59:47;12.17;;;9.40;;
7647;SDS011;3866;48.020;11.720;2023-02-07T11:02:35;11.73;;;8.63;;
7647;SDS011;3866;48.020;11.720;2023-02-07T11:08:21;14.00;;;8.63;;
7647;SDS011;3866;48.020;11.720;2023-02-07T11:10:51;12.97;;;8.57;;
7647;SDS011;3866;48.020;11.720;2023-02-07T11:13:20;17.27;;;9.10;;
7647;SDS011;3866;48.020;11.720;2023-02-07T11:15:50;15.70;;;9.23;;
7647;SDS011;3866;48.020;11.720;2023-02-07T11:18:40;16.37;;;10.20;;
7647;SDS011;3866;48.020;11.720;2023-02-07T11:21:20;14.17;;;9.03;;
7647;SDS011;3866;48.020;11.720;2023-02-07T11:23:50;12.20;;;8.77;;
7647;SDS011;3866;48.020;11.720;2023-02-07T11:26:20;16.33;;;9.53;;
7647;SDS011;3866;48.020;11.720;2023-02-07T11:28:49;16.87;;;9.07;;
7647;SDS011;3866;48.020;11.720;2023-02-07T11:31:18;19.13;;;9.43;;
7647;SDS011;3866;48.020;11.720;2023-02-07T11:33:53;12.80;;;9.07;;
7647;SDS011;3866;48.020;11.720;2023-02-07T11:36:22;17.13;;;9.23;;
7647;SDS011;3866;48.020;11.720;2023-02-07T11:38:57;14.80;;;9.10;;
7647;SDS011;3866;48.020;11.720;2023-02-07T11:41:25;11.87;;;8.77;;
7647;SDS011;3866;48.020;11.720;2023-02-07T11:43:55;12.50;;;9.00;;
7647;SDS011;3866;48.020;11.720;2023-02-07T11:46:29;16.47;;;9.53;;
7647;SDS011;3866;48.020;11.720;2023-02-07T11:49:00;14.47;;;8.97;;
7647;SDS011;3866;48.020;11.720;2023-02-07T11:51:30;12.63;;;8.93;;
7647;SDS011;3866;48.020;11.720;2023-02-07T11:53:58;12.97;;;8.67;;
7647;SDS011;3866;48.020;11.720;2023-02-07T11:56:29;12.87;;;8.97;;
7647;SDS011;3866;48.020;11.720;2023-02-07T11:58:59;15.67;;;8.57;;
7647;SDS011;3866;48.020;11.720;2023-02-07T12:01:30;11.80;;;9.33;;
7647;SDS011;3866;48.020;11.720;2023-02-07T12:03:59;16.20;;;8.70;;
7647;SDS011;3866;48.020;11.720;2023-02-07T12:06:32;14.73;;;9.40;;
7647;SDS011;3866;48.020;11.720;2023-02-07T12:09:08;15.83;;;9.80;;
7647;SDS011;3866;48.020;11.720;2023-02-07T12:11:47;15.37;;;9.80;;
7647;SDS011;3866;48.020;11.720;2023-02-07T12:14:17;12.87;;;9.13;;
7647;SDS011;3866;48.020;11.720;2023-02-07T12:16:52;23.03;;;10.80;;
7647;SDS011;3866;48.020;11.720;2023-02-07T12:19:23;11.90;;;9.27;;
7647;SDS011;3866;48.020;11.720;2023-02-07T12:21:57;15.93;;;11.90;;
7647;SDS011;3866;48.020;11.720;2023-02-07T12:24:30;12.83;;;9.57;;
7647;SDS011;3866;48.020;11.720;2023-02-07T12:27:04;21.97;;;10.10;;
7647;SDS011;3866;48.020;11.720;2023-02-07T12:29:44;16.37;;;9.60;;
7647;SDS011;3866;48.020;11.720;2023-02-07T12:32:24;11.57;;;9.50;;
7647;SDS011;3866;48.020;11.720;2023-02-07T12:34:59;15.93;;;8.90;;
7647;SDS011;3866;48.020;11.720;2023-02-07T12:37:35;16.97;;;8.97;;
7647;SDS011;3866;48.020;11.720;2023-02-07T12:40:09;11.33;;;8.63;;
7647;SDS011;3866;48.020;11.720;2023-02-07T12:42:45;11.97;;;8.27;;
7647;SDS011;3866;48.020;11.720;2023-02-07T12:45:17;10.57;;;8.97;;
7647;SDS011;3866;48.020;11.720;2023-02-07T12:47:52;13.53;;;9.17;;
7647;SDS011;3866;48.020;11.720;2023-02-07T12:50:33;16.07;;;8.50;;
7647;SDS011;3866;48.020;11.720;2023-02-07T12:53:17;14.37;;;8.90;;
7647;SDS011;3866;48.020;11.720;2023-02-07T12:55:55;10.93;;;8.23;;
7647;SDS011;3866;48.020;11.720;2023-02-07T12:58:32;18.90;;;12.20;;
7647;SDS011;3866;48.020;11.720;2023-02-07T13:01:10;12.07;;;7.90;;
7647;SDS011;3866;48.020;11.720;2023-02-07T13:03:51;11.20;;;7.10;;
7647;SDS011;3866;48.020;11.720;2023-02-07T13:06:33;9.93;;;7.43;;
7647;SDS011;3866;48.020;11.720;2023-02-07T13:09:09;11.80;;;7.80;;
7647;SDS011;3866;48.020;11.720;2023-02-07T13:11:40;9.53;;;7.37;;
7647;SDS011;3866;48.020;11.720;2023-02-07T13:14:17;14.13;;;6.57;;
7647;SDS011;3866;48.020;11.720;2023-02-07T13:16:57;11.13;;;7.10;;
7647;SDS011;3866;48.020;11.720;2023-02-07T13:19:38;11.87;;;6.70;;
7647;SDS011;3866;48.020;11.720;2023-02-07T13:22:14;11.00;;;6.77;;
7647;SDS011;3866;48.020;11.720;2023-02-07T13:24:48;10.33;;;8.60;;
7647;SDS011;3866;48.020;11.720;2023-02-07T13:27:17;13.87;;;7.63;;
7647;SDS011;3866;48.020;11.720;2023-02-07T13:29:46;14.30;;;8.10;;
7647;SDS011;3866;48.020;11.720;2023-02-07T13:32:17;8.27;;;6.97;;
7647;SDS011;3866;48.020;11.720;2023-02-07T13:34:47;9.67;;;7.80;;
7647;SDS011;3866;48.020;11.720;2023-02-07T13:37:18;10.53;;;7.60;;
7647;SDS011;3866;48.020;11.720;2023-02-07T13:39:54;26.33;;;16.40;;
7647;SDS011;3866;48.020;11.720;2023-02-07T13:42:28;47.40;;;34.60;;
7647;SDS011;3866;48.020;11.720;2023-02-07T13:45:05;35.87;;;24.63;;
7647;SDS011;3866;48.020;11.720;2023-02-07T13:50:31;29.27;;;26.27;;
7647;SDS011;3866;48.020;11.720;2023-02-07T13:53:09;21.27;;;7.60;;
7647;SDS011;3866;48.020;11.720;2023-02-07T13:56:00;11.63;;;9.63;;
7647;SDS011;3866;48.020;11.720;2023-02-07T14:01:34;8.40;;;7.00;;
7647;SDS011;3866;48.020;11.720;2023-02-07T14:04:02;8.70;;;5.57;;
7647;SDS011;3866;48.020;11.720;2023-02-07T14:06:31;7.13;;;5.87;;
7647;SDS011;3866;48.020;11.720;2023-02-07T14:09:02;11.07;;;6.47;;
7647;SDS011;3866;48.020;11.720;2023-02-07T14:11:43;11.20;;;6.57;;
7647;SDS011;3866;48.020;11.720;2023-02-07T14:14:16;18.07;;;7.60;;
7647;SDS011;3866;48.020;11.720;2023-02-07T14:16:50;17.80;;;6.97;;
7647;SDS011;3866;48.020;11.720;2023-02-07T14:22:20;16.23;;;7.43;;
7647;SDS011;3866;48.020;11.720;2023-02-07T14:30:34;10.60;;;7.17;;
7647;SDS011;3866;48.020;11.720;2023-02-07T14:33:07;11.37;;;7.37;;
7647;SDS011;3866;48.020;11.720;2023-02-07T14:35:37;10.60;;;7.80;;
7647;SDS011;3866;48.020;11.720;2023-02-07T14:38:28;12.03;;;7.20;;
7647;SDS011;3866;48.020;11.720;2023-02-07T14:41:00;10.53;;;7.20;;
7647;SDS011;3866;48.020;11.720;2023-02-07T14:43:39;9.27;;;7.73;;
7647;SDS011;3866;48.020;11.720;2023-02-07T14:46:15;10.27;;;6.53;;
7647;SDS011;3866;48.020;11.720;2023-02-07T14:48:50;12.23;;;7.90;;
7647;SDS011;3866;48.020;11.720;2023-02-07T14:51:21;17.40;;;12.30;;
7647;SDS011;3866;48.020;11.720;2023-02-07T14:53:57;9.37;;;7.60;;
7647;SDS011;3866;48.020;11.720;2023-02-07T14:56:30;8.93;;;7.20;;
7647;SDS011;3866;48.020;11.720;2023-02-07T14:59:12;11.03;;;7.33;;
7647;SDS011;3866;48.020;11.720;2023-02-07T15:01:43;9.53;;;7.37;;
7647;SDS011;3866;48.020;11.720;2023-02-07T15:04:10;11.53;;;8.60;;
7647;SDS011;3866;48.020;11.720;2023-02-07T15:06:39;10.20;;;7.80;;
7647;SDS011;3866;48.020;11.720;2023-02-07T15:09:15;12.53;;;7.30;;
7647;SDS011;3866;48.020;11.720;2023-02-07T15:11:45;11.80;;;8.30;;
7647;SDS011;3866;48.020;11.720;2023-02-07T15:14:18;14.20;;;8.33;;
7647;SDS011;3866;48.020;11.720;2023-02-07T15:16:49;12.70;;;8.17;;
7647;SDS011;3866;48.020;11.720;2023-02-07T15:19:18;12.00;;;8.47;;
7647;SDS011;3866;48.020;11.720;2023-02-07T15:21:48;14.17;;;9.73;;